sensor_id;sensor_type;location;lat;lon;timestamp;pressure;altitude;pressure_sealevel;temperature;humidity
77235;BME280;66253;50.526;14.974;2024-02-04T00:00:37;99419.80;;;7.37;98.83
77235;BME280;66253;50.526;14.974;2024-02-04T00:03:05;99408.14;;;7.36;98.84
77235;BME280;66253;50.526;14.974;2024-02-04T00:05:34;99404.24;;;7.35;98.52
77235;BME280;66253;50.526;14.974;2024-02-04T00:08:02;99392.59;;;7.33;98.57
77235;BME280;66253;50.526;14.974;2024-02-04T00:10:30;99398.23;;;7.32;98.88
77235;BME280;66253;50.526;14.974;2024-02-04T00:12:59;99392.64;;;7.32;98.55
77235;BME280;66253;50.526;14.974;2024-02-04T00:15:27;99395.86;;;7.32;98.75
77235;BME280;66253;50.526;14.974;2024-02-04T00:17:55;99391.46;;;7.31;98.56
77235;BME280;66253;50.526;14.974;2024-02-04T00:20:24;99387.92;;;7.30;98.50
77235;BME280;66253;50.526;14.974;2024-02-04T00:22:52;99399.51;;;7.30;98.30
77235;BME280;66253;50.526;14.974;2024-02-04T00:25:20;99401.24;;;7.29;98.25
77235;BME280;66253;50.526;14.974;2024-02-04T00:27:48;99402.48;;;7.27;98.15
77235;BME280;66253;50.526;14.974;2024-02-04T00:30:17;99401.54;;;7.26;98.20
77235;BME280;66253;50.526;14.974;2024-02-04T00:32:45;99402.61;;;7.24;98.14
77235;BME280;66253;50.526;14.974;2024-02-04T00:35:13;99400.12;;;7.23;98.17
77235;BME280;66253;50.526;14.974;2024-02-04T00:37:42;99390.33;;;7.21;98.17
77235;BME280;66253;50.526;14.974;2024-02-04T00:40:12;99396.09;;;7.22;98.27
77235;BME280;66253;50.526;14.974;2024-02-04T00:42:38;99394.59;;;7.21;98.29
77235;BME280;66253;50.526;14.974;2024-02-04T00:45:08;99392.89;;;7.21;98.19
77235;BME280;66253;50.526;14.974;2024-02-04T00:47:36;99394.84;;;7.19;98.23
77235;BME280;66253;50.526;14.974;2024-02-04T00:50:06;99393.73;;;7.17;98.31
77235;BME280;66253;50.526;14.974;2024-02-04T00:52:34;99394.80;;;7.16;98.53
77235;BME280;66253;50.526;14.974;2024-02-04T00:55:02;99392.37;;;7.17;98.64
77235;BME280;66253;50.526;14.974;2024-02-04T00:57:32;99383.34;;;7.17;98.55
77235;BME280;66253;50.526;14.974;2024-02-04T01:00:00;99391.88;;;7.16;98.58
77235;BME280;66253;50.526;14.974;2024-02-04T01:02:28;99395.17;;;7.19;98.58
77235;BME280;66253;50.526;14.974;2024-02-04T01:04:57;99398.17;;;7.20;98.63
77235;BME280;66253;50.526;14.974;2024-02-04T01:07:25;99402.27;;;7.20;98.61
77235;BME280;66253;50.526;14.974;2024-02-04T01:09:53;99393.09;;;7.20;98.70
77235;BME280;66253;50.526;14.974;2024-02-04T01:12:22;99393.06;;;7.20;98.79
77235;BME280;66253;50.526;14.974;2024-02-04T01:14:50;99397.45;;;7.21;98.44
77235;BME280;66253;50.526;14.974;2024-02-04T01:17:18;99394.41;;;7.22;98.57
77235;BME280;66253;50.526;14.974;2024-02-04T01:19:46;99400.85;;;7.22;98.51
77235;BME280;66253;50.526;14.974;2024-02-04T01:22:20;99394.87;;;7.23;98.36
77235;BME280;66253;50.526;14.974;2024-02-04T01:24:48;99388.91;;;7.23;98.60
77235;BME280;66253;50.526;14.974;2024-02-04T01:27:16;99378.35;;;7.23;98.53
77235;BME280;66253;50.526;14.974;2024-02-04T01:29:44;99375.51;;;7.22;98.32
77235;BME280;66253;50.526;14.974;2024-02-04T01:32:13;99378.73;;;7.23;98.30
77235;BME280;66253;50.526;14.974;2024-02-04T01:34:41;99375.32;;;7.23;98.46
77235;BME280;66253;50.526;14.974;2024-02-04T01:37:09;99373.63;;;7.23;98.15
77235;BME280;66253;50.526;14.974;2024-02-04T01:39:38;99364.48;;;7.22;98.37
77235;BME280;66253;50.526;14.974;2024-02-04T01:42:06;99364.66;;;7.22;98.28
77235;BME280;66253;50.526;14.974;2024-02-04T01:44:34;99370.27;;;7.22;98.45
77235;BME280;66253;50.526;14.974;2024-02-04T01:47:03;99369.43;;;7.21;98.45
77235;BME280;66253;50.526;14.974;2024-02-04T01:49:32;99370.86;;;7.20;98.50
77235;BME280;66253;50.526;14.974;2024-02-04T01:52:00;99373.69;;;7.17;98.36
77235;BME280;66253;50.526;14.974;2024-02-04T01:54:31;99376.83;;;7.15;98.46
77235;BME280;66253;50.526;14.974;2024-02-04T01:56:59;99380.87;;;7.11;98.29
77235;BME280;66253;50.526;14.974;2024-02-04T01:59:29;99385.51;;;7.10;98.30
77235;BME280;66253;50.526;14.974;2024-02-04T02:02:00;99398.32;;;7.08;98.58
77235;BME280;66253;50.526;14.974;2024-02-04T02:04:31;99396.14;;;7.08;98.65
77235;BME280;66253;50.526;14.974;2024-02-04T02:07:06;99398.34;;;7.07;98.63
77235;BME280;66253;50.526;14.974;2024-02-04T02:09:35;99399.76;;;7.06;98.96
77235;BME280;66253;50.526;14.974;2024-02-04T02:12:09;99397.90;;;7.06;99.27
77235;BME280;66253;50.526;14.974;2024-02-04T02:14:48;99400.61;;;7.06;99.45
77235;BME280;66253;50.526;14.974;2024-02-04T02:17:31;99404.38;;;7.05;99.33
77235;BME280;66253;50.526;14.974;2024-02-04T02:20:08;99400.77;;;7.02;99.87
77235;BME280;66253;50.526;14.974;2024-02-04T02:22:49;99395.55;;;7.01;99.91
77235;BME280;66253;50.526;14.974;2024-02-04T02:25:18;99386.76;;;7.00;99.78
77235;BME280;66253;50.526;14.974;2024-02-04T02:27:49;99386.25;;;7.00;99.90
77235;BME280;66253;50.526;14.974;2024-02-04T02:30:22;99382.82;;;7.00;99.92
77235;BME280;66253;50.526;14.974;2024-02-04T02:32:51;99378.42;;;7.00;100.00
77235;BME280;66253;50.526;14.974;2024-02-04T02:35:27;99382.05;;;6.99;99.91
77235;BME280;66253;50.526;14.974;2024-02-04T02:38:09;99375.33;;;6.97;99.96
77235;BME280;66253;50.526;14.974;2024-02-04T02:40:47;99370.27;;;6.96;100.00
77235;BME280;66253;50.526;14.974;2024-02-04T02:43:15;99364.53;;;6.95;99.96
77235;BME280;66253;50.526;14.974;2024-02-04T02:45:44;99363.99;;;6.95;99.89
77235;BME280;66253;50.526;14.974;2024-02-04T02:48:14;99358.77;;;6.95;99.87
77235;BME280;66253;50.526;14.974;2024-02-04T02:50:42;99362.05;;;6.93;99.89
77235;BME280;66253;50.526;14.974;2024-02-04T02:53:11;99363.55;;;6.94;99.68
77235;BME280;66253;50.526;14.974;2024-02-04T02:55:39;99364.30;;;6.92;99.47
77235;BME280;66253;50.526;14.974;2024-02-04T02:58:08;99355.65;;;6.92;99.58
77235;BME280;66253;50.526;14.974;2024-02-04T03:00:41;99350.79;;;6.90;99.59
77235;BME280;66253;50.526;14.974;2024-02-04T03:03:09;99359.57;;;6.91;99.47
77235;BME280;66253;50.526;14.974;2024-02-04T03:05:40;99364.89;;;6.90;99.59
77235;BME280;66253;50.526;14.974;2024-02-04T03:08:11;99368.95;;;6.91;99.56
77235;BME280;66253;50.526;14.974;2024-02-04T03:10:44;99373.45;;;6.93;99.22
77235;BME280;66253;50.526;14.974;2024-02-04T03:13:13;99377.35;;;6.93;99.37
77235;BME280;66253;50.526;14.974;2024-02-04T03:15:43;99383.31;;;6.92;99.24
77235;BME280;66253;50.526;14.974;2024-02-04T03:18:15;99370.58;;;6.92;99.22
77235;BME280;66253;50.526;14.974;2024-02-04T03:20:47;99366.73;;;6.90;99.12
77235;BME280;66253;50.526;14.974;2024-02-04T03:23:16;99365.09;;;6.89;98.93
77235;BME280;66253;50.526;14.974;2024-02-04T03:25:47;99351.39;;;6.88;98.86
77235;BME280;66253;50.526;14.974;2024-02-04T03:28:15;99348.20;;;6.87;98.66
77235;BME280;66253;50.526;14.974;2024-02-04T03:30:45;99332.46;;;6.86;98.65
77235;BME280;66253;50.526;14.974;2024-02-04T03:33:15;99330.63;;;6.85;98.44
77235;BME280;66253;50.526;14.974;2024-02-04T03:35:51;99338.52;;;6.82;98.26
77235;BME280;66253;50.526;14.974;2024-02-04T03:38:21;99347.75;;;6.81;97.93
77235;BME280;66253;50.526;14.974;2024-02-04T03:40:50;99339.14;;;6.79;97.92
77235;BME280;66253;50.526;14.974;2024-02-04T03:43:18;99341.89;;;6.79;97.89
77235;BME280;66253;50.526;14.974;2024-02-04T03:45:50;99336.46;;;6.78;98.07
77235;BME280;66253;50.526;14.974;2024-02-04T03:48:22;99328.31;;;6.78;98.06
77235;BME280;66253;50.526;14.974;2024-02-04T03:51:01;99327.96;;;6.79;98.00
77235;BME280;66253;50.526;14.974;2024-02-04T03:53:30;99328.52;;;6.78;97.71
77235;BME280;66253;50.526;14.974;2024-02-04T03:55:58;99338.61;;;6.76;97.68
77235;BME280;66253;50.526;14.974;2024-02-04T03:58:27;99335.08;;;6.75;97.81
77235;BME280;66253;50.526;14.974;2024-02-04T04:00:56;99342.21;;;6.74;97.87
77235;BME280;66253;50.526;14.974;2024-02-04T04:03:25;99343.55;;;6.75;97.93
77235;BME280;66253;50.526;14.974;2024-02-04T04:05:56;99344.71;;;6.76;97.93
77235;BME280;66253;50.526;14.974;2024-02-04T04:08:28;99343.84;;;6.76;98.11
77235;BME280;66253;50.526;14.974;2024-02-04T04:10:57;99335.17;;;6.77;98.21
77235;BME280;66253;50.526;14.974;2024-02-04T04:13:26;99326.12;;;6.78;98.29
77235;BME280;66253;50.526;14.974;2024-02-04T04:15:55;99337.49;;;6.78;98.26
77235;BME280;66253;50.526;14.974;2024-02-04T04:18:28;99342.41;;;6.78;98.14
77235;BME280;66253;50.526;14.974;2024-02-04T04:20:58;99342.23;;;6.79;98.28
77235;BME280;66253;50.526;14.974;2024-02-04T04:23:30;99344.27;;;6.79;98.60
77235;BME280;66253;50.526;14.974;2024-02-04T04:26:02;99340.20;;;6.78;98.35
77235;BME280;66253;50.526;14.974;2024-02-04T04:28:35;99336.67;;;6.77;98.47
77235;BME280;66253;50.526;14.974;2024-02-04T04:31:11;99339.55;;;6.77;98.48
77235;BME280;66253;50.526;14.974;2024-02-04T04:33:44;99343.30;;;6.77;98.70
77235;BME280;66253;50.526;14.974;2024-02-04T04:36:13;99346.35;;;6.77;98.59
77235;BME280;66253;50.526;14.974;2024-02-04T04:38:43;99346.17;;;6.77;98.74
77235;BME280;66253;50.526;14.974;2024-02-04T04:41:12;99342.23;;;6.78;98.90
77235;BME280;66253;50.526;14.974;2024-02-04T04:43:44;99332.44;;;6.77;98.76
77235;BME280;66253;50.526;14.974;2024-02-04T04:46:24;99329.37;;;6.77;98.96
77235;BME280;66253;50.526;14.974;2024-02-04T04:48:54;99327.13;;;6.78;99.07
77235;BME280;66253;50.526;14.974;2024-02-04T04:51:23;99314.91;;;6.78;98.78
77235;BME280;66253;50.526;14.974;2024-02-04T04:53:56;99311.83;;;6.79;98.85
77235;BME280;66253;50.526;14.974;2024-02-04T04:56:25;99306.91;;;6.79;98.73
77235;BME280;66253;50.526;14.974;2024-02-04T04:58:54;99313.04;;;6.78;98.96
77235;BME280;66253;50.526;14.974;2024-02-04T05:01:24;99316.98;;;6.77;99.05
77235;BME280;66253;50.526;14.974;2024-02-04T05:03:54;99317.84;;;6.77;99.17
77235;BME280;66253;50.526;14.974;2024-02-04T05:06:22;99328.19;;;6.73;98.80
77235;BME280;66253;50.526;14.974;2024-02-04T05:08:51;99338.14;;;6.66;98.70
77235;BME280;66253;50.526;14.974;2024-02-04T05:11:20;99340.78;;;6.59;98.78
77235;BME280;66253;50.526;14.974;2024-02-04T05:13:48;99344.35;;;6.54;98.92
77235;BME280;66253;50.526;14.974;2024-02-04T05:16:16;99344.01;;;6.49;98.63
77235;BME280;66253;50.526;14.974;2024-02-04T05:18:45;99342.71;;;6.44;98.82
77235;BME280;66253;50.526;14.974;2024-02-04T05:21:13;99334.21;;;6.40;98.63
77235;BME280;66253;50.526;14.974;2024-02-04T05:23:41;99333.81;;;6.37;98.59
77235;BME280;66253;50.526;14.974;2024-02-04T05:26:09;99318.65;;;6.33;98.68
77235;BME280;66253;50.526;14.974;2024-02-04T05:28:37;99308.89;;;6.31;98.49
77235;BME280;66253;50.526;14.974;2024-02-04T05:31:06;99305.58;;;6.29;98.62
77235;BME280;66253;50.526;14.974;2024-02-04T05:33:34;99294.79;;;6.27;98.64
77235;BME280;66253;50.526;14.974;2024-02-04T05:36:02;99290.64;;;6.25;98.81
77235;BME280;66253;50.526;14.974;2024-02-04T05:38:31;99302.06;;;6.24;98.85
77235;BME280;66253;50.526;14.974;2024-02-04T05:41:00;99307.33;;;6.23;98.90
77235;BME280;66253;50.526;14.974;2024-02-04T05:43:28;99308.02;;;6.23;98.93
77235;BME280;66253;50.526;14.974;2024-02-04T05:45:56;99314.52;;;6.21;98.81
77235;BME280;66253;50.526;14.974;2024-02-04T05:48:24;99314.61;;;6.19;98.66
77235;BME280;66253;50.526;14.974;2024-02-04T05:50:52;99318.71;;;6.18;98.75
77235;BME280;66253;50.526;14.974;2024-02-04T05:53:21;99316.53;;;6.17;98.58
77235;BME280;66253;50.526;14.974;2024-02-04T05:55:50;99304.48;;;6.18;98.93
77235;BME280;66253;50.526;14.974;2024-02-04T05:58:18;99302.64;;;6.17;98.91
77235;BME280;66253;50.526;14.974;2024-02-04T06:00:47;99298.52;;;6.18;99.14
77235;BME280;66253;50.526;14.974;2024-02-04T06:03:15;99289.00;;;6.19;99.40
77235;BME280;66253;50.526;14.974;2024-02-04T06:05:43;99290.67;;;6.20;99.08
77235;BME280;66253;50.526;14.974;2024-02-04T06:08:12;99298.64;;;6.20;99.14
77235;BME280;66253;50.526;14.974;2024-02-04T06:10:41;99294.70;;;6.21;99.04
77235;BME280;66253;50.526;14.974;2024-02-04T06:13:09;99298.16;;;6.23;99.34
77235;BME280;66253;50.526;14.974;2024-02-04T06:15:40;99298.17;;;6.23;99.24
77235;BME280;66253;50.526;14.974;2024-02-04T06:18:08;99299.07;;;6.26;99.32
77235;BME280;66253;50.526;14.974;2024-02-04T06:20:37;99300.27;;;6.26;99.24
77235;BME280;66253;50.526;14.974;2024-02-04T06:23:05;99304.28;;;6.27;99.44
77235;BME280;66253;50.526;14.974;2024-02-04T06:25:34;99305.54;;;6.30;99.42
77235;BME280;66253;50.526;14.974;2024-02-04T06:28:02;99307.54;;;6.31;99.34
77235;BME280;66253;50.526;14.974;2024-02-04T06:30:34;99308.35;;;6.32;99.43
77235;BME280;66253;50.526;14.974;2024-02-04T06:33:02;99301.31;;;6.34;99.33
77235;BME280;66253;50.526;14.974;2024-02-04T06:35:31;99297.38;;;6.35;99.67
77235;BME280;66253;50.526;14.974;2024-02-04T06:38:00;99299.17;;;6.38;99.55
77235;BME280;66253;50.526;14.974;2024-02-04T06:40:28;99305.73;;;6.39;99.72
77235;BME280;66253;50.526;14.974;2024-02-04T06:42:56;99309.27;;;6.40;99.56
77235;BME280;66253;50.526;14.974;2024-02-04T06:45:25;99316.16;;;6.42;99.84
77235;BME280;66253;50.526;14.974;2024-02-04T06:47:53;99317.45;;;6.43;99.89
77235;BME280;66253;50.526;14.974;2024-02-04T06:50:24;99318.23;;;6.45;99.99
77235;BME280;66253;50.526;14.974;2024-02-04T06:52:52;99322.23;;;6.47;100.00
77235;BME280;66253;50.526;14.974;2024-02-04T06:55:22;99321.50;;;6.48;99.99
77235;BME280;66253;50.526;14.974;2024-02-04T06:57:50;99318.61;;;6.48;100.00
77235;BME280;66253;50.526;14.974;2024-02-04T07:00:20;99313.79;;;6.50;100.00
77235;BME280;66253;50.526;14.974;2024-02-04T07:02:48;99310.64;;;6.52;99.95
77235;BME280;66253;50.526;14.974;2024-02-04T07:05:16;99308.15;;;6.56;100.00
77235;BME280;66253;50.526;14.974;2024-02-04T07:07:45;99304.14;;;6.58;100.00
77235;BME280;66253;50.526;14.974;2024-02-04T07:10:13;99302.35;;;6.61;100.00
77235;BME280;66253;50.526;14.974;2024-02-04T07:12:42;99308.77;;;6.66;100.00
77235;BME280;66253;50.526;14.974;2024-02-04T07:15:10;99295.92;;;6.69;100.00
77235;BME280;66253;50.526;14.974;2024-02-04T07:17:39;99290.71;;;6.72;100.00
77235;BME280;66253;50.526;14.974;2024-02-04T07:20:08;99300.96;;;6.75;100.00
77235;BME280;66253;50.526;14.974;2024-02-04T07:22:37;99296.95;;;6.78;100.00
77235;BME280;66253;50.526;14.974;2024-02-04T07:25:06;99298.06;;;6.79;100.00
77235;BME280;66253;50.526;14.974;2024-02-04T07:27:35;99297.14;;;6.81;100.00
77235;BME280;66253;50.526;14.974;2024-02-04T07:30:04;99292.38;;;6.81;100.00
77235;BME280;66253;50.526;14.974;2024-02-04T07:32:33;99287.54;;;6.84;100.00
77235;BME280;66253;50.526;14.974;2024-02-04T07:35:01;99292.77;;;6.84;100.00
77235;BME280;66253;50.526;14.974;2024-02-04T07:37:31;99292.96;;;6.84;100.00
77235;BME280;66253;50.526;14.974;2024-02-04T07:40:00;99289.47;;;6.82;100.00
77235;BME280;66253;50.526;14.974;2024-02-04T07:42:28;99292.50;;;6.82;100.00
77235;BME280;66253;50.526;14.974;2024-02-04T07:44:56;99295.02;;;6.83;100.00
77235;BME280;66253;50.526;14.974;2024-02-04T07:47:25;99289.75;;;6.84;100.00
77235;BME280;66253;50.526;14.974;2024-02-04T07:49:53;99284.59;;;6.86;100.00
77235;BME280;66253;50.526;14.974;2024-02-04T07:52:22;99274.17;;;6.87;100.00
77235;BME280;66253;50.526;14.974;2024-02-04T07:54:50;99262.70;;;6.89;100.00
77235;BME280;66253;50.526;14.974;2024-02-04T07:57:18;99263.27;;;6.92;100.00
77235;BME280;66253;50.526;14.974;2024-02-04T07:59:47;99259.09;;;6.95;100.00
77235;BME280;66253;50.526;14.974;2024-02-04T08:02:18;99258.79;;;6.98;100.00
77235;BME280;66253;50.526;14.974;2024-02-04T08:04:46;99256.25;;;7.02;100.00
77235;BME280;66253;50.526;14.974;2024-02-04T08:07:15;99260.39;;;7.04;100.00
77235;BME280;66253;50.526;14.974;2024-02-04T08:09:43;99255.87;;;7.07;100.00
77235;BME280;66253;50.526;14.974;2024-02-04T08:12:12;99245.70;;;7.11;100.00
77235;BME280;66253;50.526;14.974;2024-02-04T08:14:40;99248.42;;;7.15;100.00
77235;BME280;66253;50.526;14.974;2024-02-04T08:17:08;99253.56;;;7.18;100.00
77235;BME280;66253;50.526;14.974;2024-02-04T08:19:37;99260.51;;;7.22;100.00
77235;BME280;66253;50.526;14.974;2024-02-04T08:22:06;99262.20;;;7.26;100.00
77235;BME280;66253;50.526;14.974;2024-02-04T08:24:35;99253.52;;;7.31;100.00
77235;BME280;66253;50.526;14.974;2024-02-04T08:27:04;99250.09;;;7.36;100.00
77235;BME280;66253;50.526;14.974;2024-02-04T08:29:32;99252.07;;;7.41;100.00
77235;BME280;66253;50.526;14.974;2024-02-04T08:32:01;99249.47;;;7.46;100.00
77235;BME280;66253;50.526;14.974;2024-02-04T08:34:29;99245.23;;;7.50;100.00
77235;BME280;66253;50.526;14.974;2024-02-04T08:36:58;99246.36;;;7.55;100.00
77235;BME280;66253;50.526;14.974;2024-02-04T08:39:26;99254.34;;;7.60;100.00
77235;BME280;66253;50.526;14.974;2024-02-04T08:41:56;99250.61;;;7.63;100.00
77235;BME280;66253;50.526;14.974;2024-02-04T08:44:24;99249.79;;;7.67;100.00
77235;BME280;66253;50.526;14.974;2024-02-04T08:46:52;99247.63;;;7.69;100.00
77235;BME280;66253;50.526;14.974;2024-02-04T08:49:21;99248.45;;;7.70;100.00
77235;BME280;66253;50.526;14.974;2024-02-04T08:51:51;99243.14;;;7.70;100.00
77235;BME280;66253;50.526;14.974;2024-02-04T08:54:19;99242.94;;;7.72;100.00
77235;BME280;66253;50.526;14.974;2024-02-04T08:56:48;99242.95;;;7.75;100.00
77235;BME280;66253;50.526;14.974;2024-02-04T08:59:16;99237.77;;;7.77;100.00
77235;BME280;66253;50.526;14.974;2024-02-04T09:01:44;99236.27;;;7.80;100.00
77235;BME280;66253;50.526;14.974;2024-02-04T09:04:15;99236.48;;;7.83;100.00
77235;BME280;66253;50.526;14.974;2024-02-04T09:06:47;99234.45;;;7.87;100.00
77235;BME280;66253;50.526;14.974;2024-02-04T09:09:15;99239.14;;;7.92;100.00
77235;BME280;66253;50.526;14.974;2024-02-04T09:11:44;99238.20;;;7.98;100.00
77235;BME280;66253;50.526;14.974;2024-02-04T09:14:12;99235.63;;;8.03;100.00
77235;BME280;66253;50.526;14.974;2024-02-04T09:16:40;99231.15;;;8.07;100.00
77235;BME280;66253;50.526;14.974;2024-02-04T09:19:09;99226.69;;;8.12;100.00
77235;BME280;66253;50.526;14.974;2024-02-04T09:21:37;99225.61;;;8.17;100.00
77235;BME280;66253;50.526;14.974;2024-02-04T09:24:06;99231.00;;;8.22;100.00
77235;BME280;66253;50.526;14.974;2024-02-04T09:26:35;99239.54;;;8.25;100.00
77235;BME280;66253;50.526;14.974;2024-02-04T09:29:03;99229.84;;;8.29;100.00
77235;BME280;66253;50.526;14.974;2024-02-04T09:31:32;99230.95;;;8.30;100.00
77235;BME280;66253;50.526;14.974;2024-02-04T09:34:00;99236.27;;;8.29;100.00
77235;BME280;66253;50.526;14.974;2024-02-04T09:36:28;99235.97;;;8.28;100.00
77235;BME280;66253;50.526;14.974;2024-02-04T09:38:57;99238.73;;;8.28;100.00
77235;BME280;66253;50.526;14.974;2024-02-04T09:41:25;99232.41;;;8.28;100.00
77235;BME280;66253;50.526;14.974;2024-02-04T09:43:55;99229.05;;;8.27;100.00
77235;BME280;66253;50.526;14.974;2024-02-04T09:46:23;99226.94;;;8.29;100.00
77235;BME280;66253;50.526;14.974;2024-02-04T09:48:52;99223.64;;;8.30;100.00
77235;BME280;66253;50.526;14.974;2024-02-04T09:51:21;99218.46;;;8.32;100.00
77235;BME280;66253;50.526;14.974;2024-02-04T09:53:53;99230.64;;;8.33;100.00
77235;BME280;66253;50.526;14.974;2024-02-04T09:56:23;99225.06;;;8.32;100.00
77235;BME280;66253;50.526;14.974;2024-02-04T09:58:53;99221.08;;;8.34;100.00
77235;BME280;66253;50.526;14.974;2024-02-04T10:01:22;99226.89;;;8.33;100.00
77235;BME280;66253;50.526;14.974;2024-02-04T10:03:51;99215.21;;;8.35;100.00
77235;BME280;66253;50.526;14.974;2024-02-04T10:06:20;99207.40;;;8.40;100.00
77235;BME280;66253;50.526;14.974;2024-02-04T10:08:48;99209.55;;;8.44;100.00
77235;BME280;66253;50.526;14.974;2024-02-04T10:11:17;99215.14;;;8.49;100.00
77235;BME280;66253;50.526;14.974;2024-02-04T10:13:47;99211.33;;;8.53;100.00
77235;BME280;66253;50.526;14.974;2024-02-04T10:16:18;99198.13;;;8.56;100.00
77235;BME280;66253;50.526;14.974;2024-02-04T10:18:47;99206.27;;;8.57;100.00
77235;BME280;66253;50.526;14.974;2024-02-04T10:21:20;99211.15;;;8.58;100.00
77235;BME280;66253;50.526;14.974;2024-02-04T10:23:50;99213.81;;;8.55;99.91
77235;BME280;66253;50.526;14.974;2024-02-04T10:26:19;99215.54;;;8.55;99.97
77235;BME280;66253;50.526;14.974;2024-02-04T10:28:48;99198.67;;;8.55;99.95
77235;BME280;66253;50.526;14.974;2024-02-04T10:31:17;99192.62;;;8.57;100.00
77235;BME280;66253;50.526;14.974;2024-02-04T10:33:45;99191.05;;;8.58;100.00
77235;BME280;66253;50.526;14.974;2024-02-04T10:36:17;99187.64;;;8.58;100.00
77235;BME280;66253;50.526;14.974;2024-02-04T10:38:47;99186.95;;;8.58;100.00
77235;BME280;66253;50.526;14.974;2024-02-04T10:41:17;99184.23;;;8.57;100.00
77235;BME280;66253;50.526;14.974;2024-02-04T10:43:44;99176.95;;;8.57;100.00
77235;BME280;66253;50.526;14.974;2024-02-04T10:46:16;99169.96;;;8.57;100.00
77235;BME280;66253;50.526;14.974;2024-02-04T10:48:48;99167.75;;;8.57;100.00
77235;BME280;66253;50.526;14.974;2024-02-04T10:51:17;99166.10;;;8.56;100.00
77235;BME280;66253;50.526;14.974;2024-02-04T10:53:46;99155.02;;;8.56;99.99
77235;BME280;66253;50.526;14.974;2024-02-04T10:56:21;99161.20;;;8.59;100.00
77235;BME280;66253;50.526;14.974;2024-02-04T10:58:53;99158.30;;;8.59;100.00
77235;BME280;66253;50.526;14.974;2024-02-04T11:01:24;99169.66;;;8.60;100.00
77235;BME280;66253;50.526;14.974;2024-02-04T11:03:54;99174.40;;;8.60;99.95
77235;BME280;66253;50.526;14.974;2024-02-04T11:06:23;99174.26;;;8.60;99.94
77235;BME280;66253;50.526;14.974;2024-02-04T11:08:53;99163.77;;;8.59;99.83
77235;BME280;66253;50.526;14.974;2024-02-04T11:11:22;99166.56;;;8.57;99.77
77235;BME280;66253;50.526;14.974;2024-02-04T11:13:53;99160.66;;;8.56;99.83
77235;BME280;66253;50.526;14.974;2024-02-04T11:16:45;99162.07;;;8.55;99.46
77235;BME280;66253;50.526;14.974;2024-02-04T11:19:23;99149.67;;;8.54;99.66
77235;BME280;66253;50.526;14.974;2024-02-04T11:22:21;99145.52;;;8.56;99.66
77235;BME280;66253;50.526;14.974;2024-02-04T11:25:24;99128.63;;;8.60;99.92
77235;BME280;66253;50.526;14.974;2024-02-04T11:27:58;99121.50;;;8.66;99.86
77235;BME280;66253;50.526;14.974;2024-02-04T11:30:31;99118.02;;;8.71;99.91
77235;BME280;66253;50.526;14.974;2024-02-04T11:33:04;99120.26;;;8.75;99.51
77235;BME280;66253;50.526;14.974;2024-02-04T11:35:33;99117.19;;;8.75;98.97
77235;BME280;66253;50.526;14.974;2024-02-04T11:38:02;99111.59;;;8.74;98.31
77235;BME280;66253;50.526;14.974;2024-02-04T11:40:36;99112.48;;;8.73;97.98
77235;BME280;66253;50.526;14.974;2024-02-04T11:43:10;99113.73;;;8.72;98.04
77235;BME280;66253;50.526;14.974;2024-02-04T11:45:42;99112.87;;;8.72;97.88
77235;BME280;66253;50.526;14.974;2024-02-04T11:48:12;99107.77;;;8.72;97.43
77235;BME280;66253;50.526;14.974;2024-02-04T11:50:41;99102.02;;;8.72;97.28
77235;BME280;66253;50.526;14.974;2024-02-04T11:53:10;99099.83;;;8.71;97.15
77235;BME280;66253;50.526;14.974;2024-02-04T11:55:40;99108.61;;;8.73;97.34
77235;BME280;66253;50.526;14.974;2024-02-04T11:58:12;99097.44;;;8.71;97.07
77235;BME280;66253;50.526;14.974;2024-02-04T12:00:45;99083.92;;;8.73;97.24
77235;BME280;66253;50.526;14.974;2024-02-04T12:03:14;99076.94;;;8.73;96.93
77235;BME280;66253;50.526;14.974;2024-02-04T12:05:46;99076.23;;;8.73;96.55
77235;BME280;66253;50.526;14.974;2024-02-04T12:08:15;99070.31;;;8.72;96.16
77235;BME280;66253;50.526;14.974;2024-02-04T12:10:44;99071.93;;;8.74;96.37
77235;BME280;66253;50.526;14.974;2024-02-04T12:13:12;99072.77;;;8.74;96.31
77235;BME280;66253;50.526;14.974;2024-02-04T12:15:41;99077.13;;;8.76;96.27
77235;BME280;66253;50.526;14.974;2024-02-04T12:18:11;99073.33;;;8.76;96.12
77235;BME280;66253;50.526;14.974;2024-02-04T12:20:39;99072.79;;;8.77;96.45
77235;BME280;66253;50.526;14.974;2024-02-04T12:23:08;99075.93;;;8.79;96.10
77235;BME280;66253;50.526;14.974;2024-02-04T12:25:37;99080.16;;;8.79;95.88
77235;BME280;66253;50.526;14.974;2024-02-04T12:28:09;99076.90;;;8.80;96.19
77235;BME280;66253;50.526;14.974;2024-02-04T12:30:37;99072.08;;;8.81;96.08
77235;BME280;66253;50.526;14.974;2024-02-04T12:33:06;99061.82;;;8.82;96.24
77235;BME280;66253;50.526;14.974;2024-02-04T12:35:35;99055.49;;;8.82;96.05
77235;BME280;66253;50.526;14.974;2024-02-04T12:38:04;99049.58;;;8.85;95.75
77235;BME280;66253;50.526;14.974;2024-02-04T12:40:34;99043.52;;;8.86;96.15
77235;BME280;66253;50.526;14.974;2024-02-04T12:43:10;99037.39;;;8.86;95.52
77235;BME280;66253;50.526;14.974;2024-02-04T12:45:38;99031.07;;;8.87;95.94
77235;BME280;66253;50.526;14.974;2024-02-04T12:48:08;99021.05;;;8.86;95.88
77235;BME280;66253;50.526;14.974;2024-02-04T12:50:37;99009.04;;;8.85;95.64
77235;BME280;66253;50.526;14.974;2024-02-04T12:53:07;99005.59;;;8.85;95.59
77235;BME280;66253;50.526;14.974;2024-02-04T12:55:36;99005.27;;;8.85;95.29
77235;BME280;66253;50.526;14.974;2024-02-04T12:58:06;99011.89;;;8.86;94.84
77235;BME280;66253;50.526;14.974;2024-02-04T13:00:35;99008.44;;;8.86;95.21
77235;BME280;66253;50.526;14.974;2024-02-04T13:03:05;99008.52;;;8.88;95.00
77235;BME280;66253;50.526;14.974;2024-02-04T13:05:34;99003.59;;;8.88;94.84
77235;BME280;66253;50.526;14.974;2024-02-04T13:08:04;98997.16;;;8.87;94.89
77235;BME280;66253;50.526;14.974;2024-02-04T13:10:34;98989.52;;;8.86;95.23